TSC813 MUVR-CYUL
Flight info
| Callsign | TSC813 |
|---|---|
| Flight time | 3h 27m |
| Altitude | 35000 |
| Route | IKBIX Y183 PEAKY Q87 TIRCO/N0464F340 Q87 ZERBO/N0462F350 Q87 VIYAP Q69 RICCS DCT PSB DCT SYR DCT ART IMPAC4 |
| Aircraft | A21N/M-SDE2E3FGHIJ1RWXY/LB1 |
Departure
| Time | 2026-05-06 18:03 |
|---|---|
| Airport | Juan Gualberto Gomez International Airport (MUVR) |
Arrival
| Time | 2026-05-06 21:30 |
|---|---|
| Airport | Montreal / Pierre Elliott Trudeau International Airport (CYUL) |
| Time | Latitude | Longitude | Altitude | Speed | Heading |
|---|---|---|---|---|---|
| 2026-05-06 17:59 | 23.03723 | -81.43230 | 225 ft | 12 kts | 117° |
| 2026-05-06 17:59 | 23.03692 | -81.43141 | 226 ft | 13 kts | 78° |
| 2026-05-06 17:59 | 23.03744 | -81.43053 | 224 ft | 15 kts | 56° |
| 2026-05-06 17:59 | 23.03804 | -81.42958 | 224 ft | 16 kts | 55° |
| 2026-05-06 18:00 | 23.03869 | -81.42856 | 224 ft | 17 kts | 55° |
| 2026-05-06 18:00 | 23.03938 | -81.42748 | 225 ft | 18 kts | 55° |
| 2026-05-06 18:00 | 23.04012 | -81.42631 | 225 ft | 19 kts | 55° |
| 2026-05-06 18:00 | 23.04091 | -81.42508 | 224 ft | 20 kts | 55° |
| 2026-05-06 18:01 | 23.04174 | -81.42379 | 226 ft | 22 kts | 55° |
| 2026-05-06 18:01 | 23.04263 | -81.42242 | 226 ft | 23 kts | 51° |
| 2026-05-06 18:01 | 23.04346 | -81.42167 | 227 ft | 12 kts | 88° |
| 2026-05-06 18:01 | 23.04301 | -81.42177 | 228 ft | 9 kts | 237° |
| 2026-05-06 18:02 | 23.04208 | -81.42327 | 226 ft | 54 kts | 235° |
| 2026-05-06 18:02 | 23.03844 | -81.42898 | 223 ft | 127 kts | 236° |
| 2026-05-06 18:02 | 23.03229 | -81.43867 | 226 ft | 180 kts | 236° |
| 2026-05-06 18:02 | 23.02521 | -81.44975 | 780 ft | 179 kts | 237° |
| 2026-05-06 18:03 | 23.01823 | -81.46100 | 1429 ft | 183 kts | 237° |
| 2026-05-06 18:03 | 23.01136 | -81.47339 | 1855 ft | 199 kts | 250° |
| 2026-05-06 18:03 | 23.01023 | -81.48876 | 2319 ft | 216 kts | 282° |
| 2026-05-06 18:03 | 23.01683 | -81.50229 | 2776 ft | 227 kts | 314° |
| 2026-05-06 18:04 | 23.03066 | -81.51158 | 3108 ft | 247 kts | 344° |
| 2026-05-06 18:04 | 23.04806 | -81.51592 | 3660 ft | 265 kts | 349° |
| 2026-05-06 18:04 | 23.06604 | -81.51985 | 4402 ft | 268 kts | 348° |
| 2026-05-06 18:04 | 23.08454 | -81.52418 | 5206 ft | 273 kts | 348° |
| 2026-05-06 18:05 | 23.10320 | -81.52869 | 5977 ft | 277 kts | 347° |
| 2026-05-06 18:05 | 23.12211 | -81.53339 | 6735 ft | 280 kts | 347° |
| 2026-05-06 18:05 | 23.14118 | -81.53822 | 7476 ft | 283 kts | 347° |
| 2026-05-06 18:05 | 23.16031 | -81.54298 | 8191 ft | 286 kts | 348° |
| 2026-05-06 18:06 | 23.18023 | -81.54348 | 8855 ft | 290 kts | 11° |
| 2026-05-06 18:06 | 23.19973 | -81.53726 | 9518 ft | 294 kts | 20° |
| 2026-05-06 18:06 | 23.21895 | -81.52960 | 10197 ft | 295 kts | 20° |
| 2026-05-06 18:06 | 23.23850 | -81.52186 | 10715 ft | 305 kts | 19° |
| 2026-05-06 18:07 | 23.25914 | -81.51385 | 11009 ft | 324 kts | 19° |
| 2026-05-06 18:07 | 23.28102 | -81.50552 | 11266 ft | 341 kts | 18° |
| 2026-05-06 18:07 | 23.30408 | -81.49681 | 11541 ft | 356 kts | 18° |
| 2026-05-06 18:07 | 23.32740 | -81.48803 | 12050 ft | 362 kts | 19° |
| 2026-05-06 18:08 | 23.35139 | -81.47898 | 12710 ft | 365 kts | 19° |
| 2026-05-06 18:08 | 23.37549 | -81.46990 | 13378 ft | 367 kts | 19° |
| 2026-05-06 18:08 | 23.39973 | -81.46078 | 14021 ft | 370 kts | 19° |
| 2026-05-06 18:08 | 23.42384 | -81.45166 | 14641 ft | 372 kts | 19° |
| 2026-05-06 18:09 | 23.44866 | -81.44230 | 15221 ft | 373 kts | 19° |
| 2026-05-06 18:09 | 23.47310 | -81.43308 | 15756 ft | 377 kts | 19° |
| 2026-05-06 18:09 | 23.49795 | -81.42360 | 16300 ft | 380 kts | 19° |
| 2026-05-06 18:09 | 23.52317 | -81.41407 | 16853 ft | 383 kts | 18° |
| 2026-05-06 18:10 | 23.54823 | -81.40468 | 17389 ft | 386 kts | 18° |
| 2026-05-06 18:10 | 23.57372 | -81.39514 | 17933 ft | 389 kts | 18° |
| 2026-05-06 18:10 | 23.59947 | -81.38548 | 18467 ft | 391 kts | 19° |
| 2026-05-06 18:10 | 23.62523 | -81.37576 | 18940 ft | 393 kts | 18° |
| 2026-05-06 18:11 | 23.64244 | -81.36924 | 19250 ft | 395 kts | 19° |
| 2026-05-06 18:11 | 23.66857 | -81.35932 | 19705 ft | 399 kts | 18° |
| 2026-05-06 18:11 | 23.70358 | -81.34608 | 20301 ft | 403 kts | 18° |
| 2026-05-06 18:11 | 23.73019 | -81.33600 | 20725 ft | 406 kts | 18° |
| 2026-05-06 18:12 | 23.74791 | -81.32928 | 21013 ft | 408 kts | 18° |
| 2026-05-06 18:12 | 23.77484 | -81.31909 | 21436 ft | 411 kts | 18° |
| 2026-05-06 18:12 | 23.80203 | -81.30878 | 21841 ft | 413 kts | 18° |
| 2026-05-06 18:12 | 23.82930 | -81.29840 | 22235 ft | 416 kts | 18° |
| 2026-05-06 18:13 | 23.85680 | -81.28794 | 22621 ft | 419 kts | 18° |
| 2026-05-06 18:13 | 23.88410 | -81.27755 | 22989 ft | 421 kts | 18° |
| 2026-05-06 18:13 | 23.91198 | -81.26693 | 23346 ft | 424 kts | 18° |
| 2026-05-06 18:13 | 23.93995 | -81.25626 | 23715 ft | 426 kts | 18° |
| 2026-05-06 18:14 | 23.96803 | -81.24563 | 24056 ft | 428 kts | 18° |
| 2026-05-06 18:14 | 23.99648 | -81.23549 | 24381 ft | 430 kts | 14° |
| 2026-05-06 18:14 | 24.02604 | -81.22944 | 24724 ft | 432 kts | 7° |
| 2026-05-06 18:14 | 24.05593 | -81.22518 | 25067 ft | 434 kts | 6° |
| 2026-05-06 18:15 | 24.08595 | -81.22106 | 25395 ft | 436 kts | 6° |
| 2026-05-06 18:15 | 24.11587 | -81.21689 | 25713 ft | 438 kts | 6° |
| 2026-05-06 18:15 | 24.14624 | -81.21260 | 26045 ft | 441 kts | 6° |
| 2026-05-06 18:15 | 24.17675 | -81.20817 | 26382 ft | 443 kts | 6° |
| 2026-05-06 18:16 | 24.20739 | -81.20375 | 26733 ft | 445 kts | 6° |
| 2026-05-06 18:16 | 24.23818 | -81.19934 | 27061 ft | 446 kts | 6° |
| 2026-05-06 18:16 | 24.26907 | -81.19495 | 27358 ft | 449 kts | 6° |
| 2026-05-06 18:16 | 24.29987 | -81.19050 | 27667 ft | 451 kts | 6° |
| 2026-05-06 18:17 | 24.33099 | -81.18592 | 27968 ft | 452 kts | 6° |
| 2026-05-06 18:17 | 24.36228 | -81.18138 | 28257 ft | 454 kts | 6° |
| 2026-05-06 18:17 | 24.39380 | -81.17677 | 28558 ft | 456 kts | 6° |
| 2026-05-06 18:17 | 24.42536 | -81.17226 | 28864 ft | 457 kts | 6° |
| 2026-05-06 18:18 | 24.45694 | -81.16776 | 29251 ft | 456 kts | 6° |
| 2026-05-06 18:18 | 24.48840 | -81.16327 | 29631 ft | 455 kts | 6° |
| 2026-05-06 18:18 | 24.51993 | -81.15873 | 29987 ft | 454 kts | 6° |
| 2026-05-06 18:18 | 24.55080 | -81.15427 | 30329 ft | 452 kts | 6° |
| 2026-05-06 18:19 | 24.58209 | -81.14977 | 30686 ft | 453 kts | 6° |
| 2026-05-06 18:19 | 24.61346 | -81.14607 | 31069 ft | 451 kts | 4° |
| 2026-05-06 18:19 | 24.64467 | -81.14273 | 31382 ft | 450 kts | 4° |
| 2026-05-06 18:19 | 24.67583 | -81.13946 | 31686 ft | 449 kts | 4° |
| 2026-05-06 18:20 | 24.70701 | -81.13619 | 31979 ft | 448 kts | 4° |
| 2026-05-06 18:20 | 24.73814 | -81.13291 | 32254 ft | 448 kts | 4° |
| 2026-05-06 18:20 | 24.76922 | -81.12961 | 32534 ft | 447 kts | 4° |
| 2026-05-06 18:20 | 24.79977 | -81.12633 | 32821 ft | 447 kts | 4° |
| 2026-05-06 18:21 | 24.83085 | -81.12305 | 33083 ft | 447 kts | 4° |
| 2026-05-06 18:21 | 24.86196 | -81.11978 | 33145 ft | 447 kts | 4° |
| 2026-05-06 18:21 | 24.92366 | -81.11328 | 33121 ft | 447 kts | 4° |
| 2026-05-06 18:22 | 24.98259 | -81.10704 | 33110 ft | 446 kts | 4° |
| 2026-05-06 18:22 | 25.04491 | -81.10043 | 33110 ft | 447 kts | 4° |
| 2026-05-06 18:23 | 25.10688 | -81.09387 | 33110 ft | 447 kts | 4° |
| 2026-05-06 18:23 | 25.16869 | -81.08730 | 33112 ft | 447 kts | 4° |
| 2026-05-06 18:24 | 25.23034 | -81.08072 | 33112 ft | 447 kts | 4° |
| 2026-05-06 18:24 | 25.29221 | -81.07414 | 33109 ft | 447 kts | 4° |
| 2026-05-06 18:25 | 25.35424 | -81.06753 | 33111 ft | 446 kts | 3° |
| 2026-05-06 18:25 | 25.39869 | -81.06279 | 33111 ft | 446 kts | 3° |
| 2026-05-06 18:26 | 25.46079 | -81.05615 | 33111 ft | 446 kts | 3° |
| 2026-05-06 18:26 | 25.52242 | -81.04957 | 33108 ft | 447 kts | 3° |
| 2026-05-06 18:27 | 25.58439 | -81.04293 | 33101 ft | 447 kts | 3° |
| 2026-05-06 18:27 | 25.64620 | -81.03633 | 33106 ft | 447 kts | 3° |
| 2026-05-06 18:28 | 25.70825 | -81.02967 | 33107 ft | 446 kts | 3° |
| 2026-05-06 18:28 | 25.76966 | -81.02307 | 33107 ft | 446 kts | 3° |
| 2026-05-06 18:29 | 25.83164 | -81.01641 | 33111 ft | 446 kts | 3° |
| 2026-05-06 18:29 | 25.89330 | -81.00975 | 33117 ft | 446 kts | 3° |
| 2026-05-06 18:30 | 25.95536 | -81.00307 | 33114 ft | 446 kts | 3° |
| 2026-05-06 18:30 | 26.01725 | -80.99642 | 33106 ft | 446 kts | 3° |
| 2026-05-06 18:31 | 26.07873 | -80.98980 | 33117 ft | 446 kts | 3° |
| 2026-05-06 18:31 | 26.14060 | -80.98312 | 33119 ft | 446 kts | 3° |
| 2026-05-06 18:32 | 26.20234 | -80.97644 | 33114 ft | 445 kts | 3° |
| 2026-05-06 18:32 | 26.26425 | -80.96974 | 33109 ft | 445 kts | 3° |
| 2026-05-06 18:33 | 26.32554 | -80.96309 | 33113 ft | 445 kts | 3° |
| 2026-05-06 18:33 | 26.38728 | -80.95641 | 33111 ft | 446 kts | 3° |
| 2026-05-06 18:34 | 26.44904 | -80.94972 | 33111 ft | 445 kts | 3° |
| 2026-05-06 18:34 | 26.51050 | -80.94304 | 33097 ft | 445 kts | 3° |
| 2026-05-06 18:35 | 26.57235 | -80.93630 | 33103 ft | 446 kts | 3° |
| 2026-05-06 18:35 | 26.63376 | -80.92961 | 33097 ft | 445 kts | 3° |
| 2026-05-06 18:36 | 26.69562 | -80.92293 | 33103 ft | 446 kts | 3° |
| 2026-05-06 18:36 | 26.75737 | -80.91622 | 33102 ft | 445 kts | 3° |
| 2026-05-06 18:37 | 26.80870 | -80.91061 | 33099 ft | 445 kts | 3° |
| 2026-05-06 18:37 | 26.88056 | -80.90277 | 33100 ft | 445 kts | 3° |
| 2026-05-06 18:38 | 26.94246 | -80.89602 | 33101 ft | 445 kts | 3° |
| 2026-05-06 18:38 | 27.00369 | -80.88934 | 33096 ft | 444 kts | 2° |
| 2026-05-06 18:39 | 27.06551 | -80.88258 | 33095 ft | 445 kts | 3° |
| 2026-05-06 18:40 | 27.15762 | -80.87245 | 33092 ft | 445 kts | 2° |
| 2026-05-06 18:40 | 27.21947 | -80.86572 | 33090 ft | 445 kts | 2° |
| 2026-05-06 18:41 | 27.28112 | -80.85892 | 33091 ft | 444 kts | 3° |
| 2026-05-06 18:41 | 27.34217 | -80.85897 | 33090 ft | 439 kts | 349° |
| 2026-05-06 18:42 | 27.40245 | -80.87032 | 33092 ft | 439 kts | 348° |
| 2026-05-06 18:42 | 27.46271 | -80.88216 | 33095 ft | 439 kts | 348° |
| 2026-05-06 18:43 | 27.52300 | -80.89370 | 33099 ft | 439 kts | 348° |
| 2026-05-06 18:43 | 27.58295 | -80.90498 | 33100 ft | 439 kts | 348° |
| 2026-05-06 18:44 | 27.64341 | -80.91655 | 33104 ft | 439 kts | 348° |
| 2026-05-06 18:44 | 27.70368 | -80.92812 | 33101 ft | 439 kts | 348° |
| 2026-05-06 18:45 | 27.76371 | -80.93949 | 33097 ft | 438 kts | 348° |
| 2026-05-06 18:45 | 27.82406 | -80.95094 | 33095 ft | 438 kts | 348° |
| 2026-05-06 18:46 | 27.88400 | -80.96246 | 33109 ft | 439 kts | 347° |
| 2026-05-06 18:46 | 27.94414 | -80.97428 | 33113 ft | 439 kts | 348° |
| 2026-05-06 18:47 | 28.00463 | -80.98602 | 33107 ft | 439 kts | 348° |
| 2026-05-06 18:47 | 28.06485 | -80.99761 | 33102 ft | 438 kts | 347° |
| 2026-05-06 18:48 | 28.12469 | -81.00920 | 33102 ft | 438 kts | 347° |
| 2026-05-06 18:48 | 28.18480 | -81.02094 | 33112 ft | 438 kts | 347° |
| 2026-05-06 18:49 | 28.24494 | -81.03262 | 33111 ft | 438 kts | 347° |
| 2026-05-06 18:49 | 28.30508 | -81.04432 | 33109 ft | 438 kts | 347° |
| 2026-05-06 18:50 | 28.36464 | -81.05703 | 33108 ft | 437 kts | 342° |
| 2026-05-06 18:50 | 28.42163 | -81.08025 | 33111 ft | 434 kts | 336° |
| 2026-05-06 18:51 | 28.47797 | -81.10495 | 33113 ft | 434 kts | 336° |
| 2026-05-06 18:51 | 28.53418 | -81.12931 | 33108 ft | 435 kts | 336° |
| 2026-05-06 18:52 | 28.59067 | -81.15371 | 33115 ft | 434 kts | 337° |
| 2026-05-06 18:52 | 28.64728 | -81.17811 | 33104 ft | 433 kts | 336° |
| 2026-05-06 18:53 | 28.69419 | -81.19842 | 33097 ft | 433 kts | 336° |
| 2026-05-06 18:53 | 28.75982 | -81.22696 | 33098 ft | 434 kts | 336° |
| 2026-05-06 18:54 | 28.80681 | -81.24734 | 33103 ft | 434 kts | 336° |
| 2026-05-06 18:54 | 28.86308 | -81.27190 | 33102 ft | 433 kts | 336° |
| 2026-05-06 18:55 | 28.92028 | -81.29413 | 33095 ft | 437 kts | 346° |
| 2026-05-06 18:55 | 28.98128 | -81.30047 | 33102 ft | 440 kts | 353° |
| 2026-05-06 18:56 | 29.04199 | -81.30458 | 33097 ft | 439 kts | 353° |
| 2026-05-06 18:56 | 29.10321 | -81.30944 | 33102 ft | 439 kts | 352° |
| 2026-05-06 18:57 | 29.16422 | -81.31425 | 33098 ft | 439 kts | 352° |
| 2026-05-06 18:57 | 29.22496 | -81.31909 | 33098 ft | 439 kts | 352° |
| 2026-05-06 18:58 | 29.28611 | -81.32373 | 33100 ft | 439 kts | 353° |
| 2026-05-06 18:58 | 29.34694 | -81.32732 | 33103 ft | 439 kts | 353° |
| 2026-05-06 18:59 | 29.40821 | -81.33096 | 33102 ft | 440 kts | 353° |
| 2026-05-06 18:59 | 29.46938 | -81.33457 | 33112 ft | 439 kts | 353° |
| 2026-05-06 19:00 | 29.53052 | -81.33821 | 33108 ft | 439 kts | 353° |
| 2026-05-06 19:00 | 29.59121 | -81.34177 | 33108 ft | 439 kts | 353° |
| 2026-05-06 19:01 | 29.65231 | -81.34535 | 33102 ft | 439 kts | 353° |
| 2026-05-06 19:01 | 29.71347 | -81.34897 | 33101 ft | 439 kts | 353° |
| 2026-05-06 19:02 | 29.77423 | -81.35255 | 33103 ft | 439 kts | 353° |
| 2026-05-06 19:02 | 29.83537 | -81.35623 | 33102 ft | 438 kts | 353° |
| 2026-05-06 19:03 | 29.89604 | -81.35986 | 33110 ft | 439 kts | 353° |
| 2026-05-06 19:03 | 29.95714 | -81.36346 | 33110 ft | 439 kts | 353° |
| 2026-05-06 19:04 | 30.01787 | -81.36707 | 33111 ft | 439 kts | 353° |
| 2026-05-06 19:04 | 30.07901 | -81.37048 | 33099 ft | 438 kts | 353° |
| 2026-05-06 19:05 | 30.14002 | -81.37428 | 33096 ft | 439 kts | 353° |
| 2026-05-06 19:05 | 30.20102 | -81.37788 | 33092 ft | 439 kts | 353° |
| 2026-05-06 19:06 | 30.26160 | -81.38160 | 33091 ft | 438 kts | 353° |
| 2026-05-06 19:06 | 30.32260 | -81.38529 | 33091 ft | 438 kts | 353° |
| 2026-05-06 19:07 | 30.38378 | -81.38872 | 33086 ft | 438 kts | 353° |
| 2026-05-06 19:07 | 30.44447 | -81.39232 | 33088 ft | 439 kts | 353° |
| 2026-05-06 19:08 | 30.50549 | -81.39569 | 33089 ft | 439 kts | 353° |
| 2026-05-06 19:08 | 30.56621 | -81.39898 | 33089 ft | 438 kts | 353° |
| 2026-05-06 19:09 | 30.62718 | -81.40237 | 33083 ft | 438 kts | 353° |
| 2026-05-06 19:09 | 30.68829 | -81.40564 | 33090 ft | 438 kts | 353° |
| 2026-05-06 19:10 | 30.74896 | -81.40886 | 33091 ft | 438 kts | 353° |
| 2026-05-06 19:10 | 30.81009 | -81.41210 | 33091 ft | 439 kts | 353° |
| 2026-05-06 19:11 | 30.87079 | -81.41532 | 33083 ft | 438 kts | 353° |
| 2026-05-06 19:11 | 30.93182 | -81.41858 | 33079 ft | 437 kts | 353° |
| 2026-05-06 19:12 | 30.99274 | -81.42182 | 33080 ft | 438 kts | 353° |
| 2026-05-06 19:12 | 31.05334 | -81.42508 | 33075 ft | 438 kts | 353° |
| 2026-05-06 19:13 | 31.11422 | -81.42832 | 33075 ft | 438 kts | 353° |
| 2026-05-06 19:13 | 31.17522 | -81.43156 | 33075 ft | 438 kts | 353° |
| 2026-05-06 19:14 | 31.23574 | -81.43480 | 33072 ft | 437 kts | 353° |
| 2026-05-06 19:14 | 31.29680 | -81.43629 | 33081 ft | 439 kts | 355° |
| 2026-05-06 19:15 | 31.35795 | -81.43697 | 33082 ft | 439 kts | 355° |
| 2026-05-06 19:15 | 31.41878 | -81.43767 | 33081 ft | 439 kts | 355° |
| 2026-05-06 19:16 | 31.47998 | -81.43490 | 33068 ft | 445 kts | 6° |
| 2026-05-06 19:16 | 31.53949 | -81.41302 | 33065 ft | 452 kts | 15° |
| 2026-05-06 19:17 | 31.59874 | -81.38812 | 33061 ft | 452 kts | 14° |
| 2026-05-06 19:17 | 31.65817 | -81.36361 | 33053 ft | 451 kts | 14° |
| 2026-05-06 19:18 | 31.71715 | -81.33935 | 33044 ft | 451 kts | 14° |
| 2026-05-06 19:18 | 31.77647 | -81.31491 | 33040 ft | 450 kts | 14° |
| 2026-05-06 19:19 | 31.83570 | -81.29055 | 33041 ft | 450 kts | 14° |
| 2026-05-06 19:19 | 31.89436 | -81.26625 | 33036 ft | 450 kts | 14° |
| 2026-05-06 19:20 | 31.95372 | -81.24272 | 33025 ft | 446 kts | 9° |
| 2026-05-06 19:20 | 32.01426 | -81.23456 | 33027 ft | 438 kts | 358° |
| 2026-05-06 19:21 | 32.07537 | -81.23193 | 33025 ft | 438 kts | 357° |
| 2026-05-06 19:21 | 32.13641 | -81.22902 | 33044 ft | 438 kts | 358° |
| 2026-05-06 19:22 | 32.19703 | -81.22601 | 33049 ft | 439 kts | 358° |
| 2026-05-06 19:22 | 32.25814 | -81.22301 | 33051 ft | 440 kts | 357° |
| 2026-05-06 19:23 | 32.31928 | -81.21995 | 33048 ft | 439 kts | 358° |
| 2026-05-06 19:23 | 32.38007 | -81.21700 | 33051 ft | 440 kts | 358° |
| 2026-05-06 19:24 | 32.44143 | -81.21389 | 33048 ft | 440 kts | 358° |
| 2026-05-06 19:24 | 32.50274 | -81.20765 | 33042 ft | 446 kts | 5° |
| 2026-05-06 19:25 | 32.56387 | -81.19345 | 33042 ft | 447 kts | 6° |
| 2026-05-06 19:25 | 32.62454 | -81.17929 | 33037 ft | 446 kts | 6° |
| 2026-05-06 19:26 | 32.68557 | -81.16525 | 33037 ft | 446 kts | 6° |
| 2026-05-06 19:26 | 32.74653 | -81.15117 | 33037 ft | 446 kts | 6° |
| 2026-05-06 19:27 | 32.80709 | -81.13709 | 33036 ft | 445 kts | 6° |
| 2026-05-06 19:27 | 32.86803 | -81.12312 | 33033 ft | 446 kts | 6° |
| 2026-05-06 19:28 | 32.92904 | -81.10906 | 33033 ft | 446 kts | 6° |
| 2026-05-06 19:28 | 32.98963 | -81.09491 | 33030 ft | 446 kts | 6° |
| 2026-05-06 19:29 | 33.05067 | -81.08076 | 33031 ft | 446 kts | 6° |
| 2026-05-06 19:29 | 33.11165 | -81.06660 | 33029 ft | 446 kts | 6° |
| 2026-05-06 19:30 | 33.17256 | -81.05241 | 33030 ft | 446 kts | 6° |
| 2026-05-06 19:30 | 33.23309 | -81.03830 | 33029 ft | 446 kts | 6° |
| 2026-05-06 19:31 | 33.29400 | -81.02406 | 33026 ft | 446 kts | 6° |
| 2026-05-06 19:31 | 33.38550 | -81.00266 | 33026 ft | 446 kts | 6° |
| 2026-05-06 19:32 | 33.44661 | -80.98834 | 33031 ft | 447 kts | 6° |
| 2026-05-06 19:32 | 33.50744 | -80.97402 | 33031 ft | 447 kts | 6° |
| 2026-05-06 19:33 | 33.56862 | -80.95964 | 33025 ft | 447 kts | 6° |
| 2026-05-06 19:33 | 33.62953 | -80.94531 | 33021 ft | 447 kts | 6° |
| 2026-05-06 19:34 | 33.69073 | -80.93086 | 33021 ft | 447 kts | 6° |
| 2026-05-06 19:34 | 33.75183 | -80.91648 | 33022 ft | 447 kts | 6° |
| 2026-05-06 19:35 | 33.81261 | -80.90207 | 33022 ft | 447 kts | 6° |
| 2026-05-06 19:35 | 33.87378 | -80.88875 | 33020 ft | 445 kts | 4° |
| 2026-05-06 19:36 | 33.93485 | -80.87780 | 33013 ft | 445 kts | 4° |
| 2026-05-06 19:36 | 33.99627 | -80.86683 | 33019 ft | 445 kts | 4° |
| 2026-05-06 19:37 | 34.05794 | -80.85577 | 33021 ft | 448 kts | 4° |
| 2026-05-06 19:37 | 34.10892 | -80.84651 | 33020 ft | 448 kts | 4° |
| 2026-05-06 19:38 | 34.18104 | -80.83348 | 33021 ft | 448 kts | 4° |
| 2026-05-06 19:38 | 34.24246 | -80.82238 | 33033 ft | 449 kts | 4° |
| 2026-05-06 19:39 | 34.30442 | -80.81112 | 33028 ft | 450 kts | 4° |
| 2026-05-06 19:39 | 34.35602 | -80.80181 | 33030 ft | 450 kts | 4° |
| 2026-05-06 19:40 | 34.42813 | -80.78872 | 33023 ft | 451 kts | 4° |
| 2026-05-06 19:40 | 34.47970 | -80.77928 | 33020 ft | 450 kts | 4° |
| 2026-05-06 19:41 | 34.54190 | -80.76797 | 33019 ft | 450 kts | 4° |
| 2026-05-06 19:41 | 34.60381 | -80.75663 | 33014 ft | 450 kts | 4° |
| 2026-05-06 19:42 | 34.66557 | -80.74537 | 33009 ft | 451 kts | 4° |
| 2026-05-06 19:42 | 34.72757 | -80.73404 | 33009 ft | 450 kts | 4° |
| 2026-05-06 19:43 | 34.78946 | -80.72272 | 33006 ft | 451 kts | 4° |
| 2026-05-06 19:43 | 34.85169 | -80.71123 | 33003 ft | 451 kts | 4° |
| 2026-05-06 19:44 | 34.91353 | -80.69988 | 33002 ft | 451 kts | 4° |
| 2026-05-06 19:44 | 34.97548 | -80.68847 | 32983 ft | 452 kts | 4° |
| 2026-05-06 19:45 | 35.03786 | -80.67699 | 32996 ft | 452 kts | 4° |
| 2026-05-06 19:45 | 35.09983 | -80.66554 | 32997 ft | 452 kts | 4° |
| 2026-05-06 19:46 | 35.16221 | -80.65399 | 32985 ft | 453 kts | 4° |
| 2026-05-06 19:46 | 35.22453 | -80.64242 | 32999 ft | 454 kts | 4° |
| 2026-05-06 19:47 | 35.28673 | -80.63084 | 33008 ft | 454 kts | 4° |
| 2026-05-06 19:47 | 35.34916 | -80.61923 | 33010 ft | 454 kts | 4° |
| 2026-05-06 19:48 | 35.41190 | -80.60760 | 33018 ft | 454 kts | 4° |
| 2026-05-06 19:48 | 35.47412 | -80.59600 | 33013 ft | 453 kts | 4° |
| 2026-05-06 19:49 | 35.53660 | -80.58432 | 33009 ft | 454 kts | 4° |
| 2026-05-06 19:49 | 35.59899 | -80.57265 | 32998 ft | 454 kts | 4° |
| 2026-05-06 19:50 | 35.66133 | -80.56099 | 32994 ft | 455 kts | 4° |
| 2026-05-06 19:50 | 35.72394 | -80.54929 | 32991 ft | 453 kts | 4° |
| 2026-05-06 19:51 | 35.78650 | -80.53749 | 32986 ft | 454 kts | 4° |
| 2026-05-06 19:51 | 35.84879 | -80.52573 | 32986 ft | 454 kts | 4° |
| 2026-05-06 19:52 | 35.91140 | -80.51398 | 32996 ft | 454 kts | 4° |
| 2026-05-06 19:52 | 35.97395 | -80.50218 | 32977 ft | 454 kts | 4° |
| 2026-05-06 19:53 | 36.03648 | -80.49033 | 32986 ft | 455 kts | 4° |
| 2026-05-06 19:53 | 36.09924 | -80.47846 | 32984 ft | 455 kts | 4° |
| 2026-05-06 19:54 | 36.16156 | -80.46665 | 32979 ft | 455 kts | 4° |
| 2026-05-06 19:54 | 36.22450 | -80.45469 | 32977 ft | 455 kts | 4° |
| 2026-05-06 19:55 | 36.28721 | -80.44277 | 32976 ft | 455 kts | 4° |
| 2026-05-06 19:55 | 36.34953 | -80.43087 | 32978 ft | 456 kts | 4° |
| 2026-05-06 19:56 | 36.41240 | -80.41885 | 32978 ft | 456 kts | 4° |
| 2026-05-06 19:56 | 36.47522 | -80.40624 | 32977 ft | 457 kts | 5° |
| 2026-05-06 19:57 | 36.53767 | -80.39338 | 32974 ft | 457 kts | 5° |
| 2026-05-06 19:57 | 36.60066 | -80.38052 | 32979 ft | 458 kts | 5° |
| 2026-05-06 19:58 | 36.66322 | -80.36779 | 32984 ft | 457 kts | 5° |
| 2026-05-06 19:58 | 36.72619 | -80.35491 | 32974 ft | 458 kts | 4° |
| 2026-05-06 19:59 | 36.78917 | -80.34509 | 32978 ft | 457 kts | 1° |
| 2026-05-06 19:59 | 36.85242 | -80.33621 | 32977 ft | 457 kts | 1° |
| 2026-05-06 20:00 | 36.91533 | -80.32729 | 32983 ft | 457 kts | 1° |
| 2026-05-06 20:00 | 36.97879 | -80.31824 | 32979 ft | 457 kts | 1° |
| 2026-05-06 20:01 | 37.04201 | -80.30924 | 32979 ft | 458 kts | 1° |
| 2026-05-06 20:01 | 37.10511 | -80.30025 | 32973 ft | 459 kts | 1° |
| 2026-05-06 20:02 | 37.16866 | -80.29117 | 32981 ft | 459 kts | 1° |
| 2026-05-06 20:02 | 37.23244 | -80.28208 | 32978 ft | 463 kts | 1° |
| 2026-05-06 20:03 | 37.29596 | -80.27298 | 32979 ft | 462 kts | 1° |
| 2026-05-06 20:03 | 37.35965 | -80.26379 | 32979 ft | 462 kts | 1° |
| 2026-05-06 20:04 | 37.42364 | -80.25460 | 32967 ft | 463 kts | 1° |
| 2026-05-06 20:04 | 37.48786 | -80.24531 | 32956 ft | 464 kts | 1° |
| 2026-05-06 20:05 | 37.55216 | -80.23602 | 32949 ft | 462 kts | 1° |
| 2026-05-06 20:05 | 37.61577 | -80.22677 | 32945 ft | 462 kts | 1° |
| 2026-05-06 20:06 | 37.67981 | -80.21743 | 32940 ft | 462 kts | 2° |
| 2026-05-06 20:06 | 37.74393 | -80.20786 | 32939 ft | 463 kts | 1° |
| 2026-05-06 20:07 | 37.80769 | -80.19836 | 32943 ft | 463 kts | 2° |
| 2026-05-06 20:07 | 37.87178 | -80.18876 | 32942 ft | 463 kts | 2° |
| 2026-05-06 20:08 | 37.93543 | -80.17925 | 32933 ft | 463 kts | 2° |
| 2026-05-06 20:08 | 37.99971 | -80.16962 | 32941 ft | 464 kts | 2° |
| 2026-05-06 20:09 | 38.06389 | -80.16002 | 32938 ft | 464 kts | 2° |
| 2026-05-06 20:09 | 38.12768 | -80.15039 | 32939 ft | 463 kts | 2° |
| 2026-05-06 20:10 | 38.19178 | -80.14074 | 32937 ft | 464 kts | 2° |
| 2026-05-06 20:10 | 38.25581 | -80.13105 | 32939 ft | 463 kts | 1° |
| 2026-05-06 20:11 | 38.31995 | -80.12136 | 32938 ft | 462 kts | 2° |
| 2026-05-06 20:11 | 38.38381 | -80.11355 | 32927 ft | 460 kts | 357° |
| 2026-05-06 20:12 | 38.44766 | -80.11003 | 32932 ft | 460 kts | 357° |
| 2026-05-06 20:12 | 38.51173 | -80.10656 | 32930 ft | 460 kts | 357° |
| 2026-05-06 20:13 | 38.57593 | -80.10307 | 32929 ft | 460 kts | 356° |
| 2026-05-06 20:13 | 38.63965 | -80.09952 | 32933 ft | 460 kts | 356° |
| 2026-05-06 20:14 | 38.70369 | -80.09602 | 32931 ft | 460 kts | 356° |
| 2026-05-06 20:14 | 38.76762 | -80.09249 | 32930 ft | 459 kts | 356° |
| 2026-05-06 20:15 | 38.83136 | -80.08892 | 32932 ft | 459 kts | 356° |
| 2026-05-06 20:15 | 38.89537 | -80.08269 | 32924 ft | 466 kts | 5° |
| 2026-05-06 20:16 | 38.92632 | -80.07074 | 32947 ft | 477 kts | 18° |
| 2026-05-06 20:16 | 38.95565 | -80.04990 | 33142 ft | 487 kts | 31° |
| 2026-05-06 20:16 | 38.98275 | -80.02313 | 33416 ft | 490 kts | 34° |
| 2026-05-06 20:16 | 39.00929 | -79.99562 | 33697 ft | 490 kts | 34° |
| 2026-05-06 20:17 | 39.03559 | -79.96845 | 33959 ft | 489 kts | 34° |
| 2026-05-06 20:17 | 39.06223 | -79.94115 | 34237 ft | 488 kts | 34° |
| 2026-05-06 20:17 | 39.08889 | -79.91398 | 34468 ft | 490 kts | 33° |
| 2026-05-06 20:17 | 39.11567 | -79.88685 | 34693 ft | 490 kts | 33° |
| 2026-05-06 20:18 | 39.14253 | -79.85962 | 34914 ft | 491 kts | 33° |
| 2026-05-06 20:18 | 39.16939 | -79.83229 | 34961 ft | 491 kts | 33° |
| 2026-05-06 20:18 | 39.22285 | -79.77764 | 34924 ft | 492 kts | 33° |
| 2026-05-06 20:19 | 39.27653 | -79.72274 | 34914 ft | 492 kts | 33° |
| 2026-05-06 20:19 | 39.33013 | -79.66789 | 34909 ft | 492 kts | 33° |
| 2026-05-06 20:20 | 39.38363 | -79.61302 | 34909 ft | 493 kts | 33° |
| 2026-05-06 20:20 | 39.43739 | -79.55780 | 34904 ft | 493 kts | 33° |
| 2026-05-06 20:21 | 39.49115 | -79.50244 | 34901 ft | 493 kts | 33° |
| 2026-05-06 20:21 | 39.54459 | -79.44736 | 34900 ft | 493 kts | 33° |
| 2026-05-06 20:22 | 39.59838 | -79.39182 | 34900 ft | 493 kts | 33° |
| 2026-05-06 20:22 | 39.65205 | -79.33617 | 34899 ft | 493 kts | 33° |
| 2026-05-06 20:23 | 39.70560 | -79.28059 | 34901 ft | 492 kts | 33° |
| 2026-05-06 20:23 | 39.75900 | -79.22500 | 34902 ft | 493 kts | 33° |
| 2026-05-06 20:24 | 39.81224 | -79.16957 | 34905 ft | 492 kts | 33° |
| 2026-05-06 20:24 | 39.85716 | -79.12267 | 34903 ft | 493 kts | 33° |
| 2026-05-06 20:25 | 39.91022 | -79.06716 | 34896 ft | 493 kts | 33° |
| 2026-05-06 20:25 | 39.96369 | -79.01116 | 34899 ft | 491 kts | 33° |
| 2026-05-06 20:26 | 40.01666 | -78.95551 | 34900 ft | 491 kts | 33° |
| 2026-05-06 20:26 | 40.07004 | -78.89939 | 34902 ft | 492 kts | 33° |
| 2026-05-06 20:27 | 40.12343 | -78.84304 | 34897 ft | 493 kts | 33° |
| 2026-05-06 20:27 | 40.17679 | -78.78668 | 34891 ft | 492 kts | 33° |
| 2026-05-06 20:28 | 40.22963 | -78.73074 | 34890 ft | 491 kts | 33° |
| 2026-05-06 20:28 | 40.28274 | -78.67446 | 34892 ft | 491 kts | 33° |
| 2026-05-06 20:29 | 40.33585 | -78.61806 | 34891 ft | 491 kts | 33° |
| 2026-05-06 20:29 | 40.38865 | -78.56171 | 34889 ft | 490 kts | 33° |
| 2026-05-06 20:30 | 40.46817 | -78.47666 | 34877 ft | 490 kts | 33° |
| 2026-05-06 20:31 | 40.52061 | -78.42048 | 34881 ft | 489 kts | 33° |
| 2026-05-06 20:31 | 40.57343 | -78.36377 | 34874 ft | 489 kts | 34° |
| 2026-05-06 20:32 | 40.62616 | -78.30697 | 34873 ft | 490 kts | 34° |
| 2026-05-06 20:32 | 40.67889 | -78.25009 | 34861 ft | 489 kts | 34° |
| 2026-05-06 20:33 | 40.73129 | -78.19348 | 34858 ft | 489 kts | 34° |
| 2026-05-06 20:33 | 40.78403 | -78.13651 | 34854 ft | 489 kts | 34° |
| 2026-05-06 20:34 | 40.83637 | -78.07977 | 34852 ft | 490 kts | 34° |
| 2026-05-06 20:34 | 40.88903 | -78.02233 | 34850 ft | 489 kts | 34° |
| 2026-05-06 20:35 | 40.94411 | -77.97092 | 34852 ft | 479 kts | 24° |
| 2026-05-06 20:35 | 41.00163 | -77.92705 | 34850 ft | 479 kts | 24° |
| 2026-05-06 20:36 | 41.05963 | -77.88268 | 34853 ft | 480 kts | 24° |
| 2026-05-06 20:36 | 41.11717 | -77.83846 | 34851 ft | 480 kts | 24° |
| 2026-05-06 20:37 | 41.17502 | -77.79386 | 34845 ft | 480 kts | 24° |
| 2026-05-06 20:37 | 41.23239 | -77.74955 | 34847 ft | 480 kts | 24° |
| 2026-05-06 20:38 | 41.29023 | -77.70495 | 34850 ft | 480 kts | 24° |
| 2026-05-06 20:38 | 41.34812 | -77.66006 | 34852 ft | 481 kts | 24° |
| 2026-05-06 20:39 | 41.40602 | -77.61502 | 34868 ft | 481 kts | 24° |
| 2026-05-06 20:39 | 41.46345 | -77.57022 | 34857 ft | 481 kts | 24° |
| 2026-05-06 20:40 | 41.52145 | -77.52503 | 34849 ft | 481 kts | 24° |
| 2026-05-06 20:40 | 41.57928 | -77.47979 | 34854 ft | 480 kts | 24° |
| 2026-05-06 20:41 | 41.63663 | -77.43478 | 34859 ft | 481 kts | 24° |
| 2026-05-06 20:41 | 41.69463 | -77.38933 | 34861 ft | 481 kts | 24° |
| 2026-05-06 20:42 | 41.75203 | -77.34415 | 34863 ft | 481 kts | 24° |
| 2026-05-06 20:42 | 41.80980 | -77.29858 | 34857 ft | 480 kts | 24° |
| 2026-05-06 20:43 | 41.86758 | -77.25290 | 34859 ft | 481 kts | 24° |
| 2026-05-06 20:43 | 41.92489 | -77.20749 | 34859 ft | 481 kts | 25° |
| 2026-05-06 20:44 | 41.98268 | -77.16163 | 34859 ft | 481 kts | 25° |
| 2026-05-06 20:44 | 42.04028 | -77.11579 | 34869 ft | 481 kts | 25° |
| 2026-05-06 20:45 | 42.09760 | -77.07013 | 34868 ft | 481 kts | 25° |
| 2026-05-06 20:45 | 42.15526 | -77.02416 | 34871 ft | 480 kts | 25° |
| 2026-05-06 20:46 | 42.21272 | -76.97811 | 34871 ft | 481 kts | 25° |
| 2026-05-06 20:46 | 42.27042 | -76.93170 | 34875 ft | 482 kts | 25° |
| 2026-05-06 20:47 | 42.32774 | -76.88570 | 34871 ft | 481 kts | 25° |
| 2026-05-06 20:47 | 42.38539 | -76.83923 | 34877 ft | 481 kts | 26° |
| 2026-05-06 20:48 | 42.44275 | -76.79288 | 34881 ft | 482 kts | 26° |
| 2026-05-06 20:48 | 42.50047 | -76.74617 | 34886 ft | 483 kts | 26° |
| 2026-05-06 20:49 | 42.55779 | -76.69958 | 34893 ft | 481 kts | 26° |
| 2026-05-06 20:49 | 42.61520 | -76.65274 | 34892 ft | 481 kts | 26° |
| 2026-05-06 20:50 | 42.67251 | -76.60605 | 34891 ft | 480 kts | 26° |
| 2026-05-06 20:50 | 42.73000 | -76.55915 | 34889 ft | 480 kts | 26° |
| 2026-05-06 20:51 | 42.78732 | -76.51222 | 34889 ft | 480 kts | 26° |
| 2026-05-06 20:51 | 42.84419 | -76.46551 | 34888 ft | 479 kts | 26° |
| 2026-05-06 20:52 | 42.90129 | -76.41876 | 34889 ft | 478 kts | 26° |
| 2026-05-06 20:52 | 42.95842 | -76.37172 | 34886 ft | 479 kts | 27° |
| 2026-05-06 20:53 | 43.01507 | -76.32488 | 34891 ft | 479 kts | 27° |
| 2026-05-06 20:53 | 43.07341 | -76.28134 | 34877 ft | 473 kts | 13° |
| 2026-05-06 20:54 | 43.13732 | -76.26427 | 34890 ft | 467 kts | 4° |
| 2026-05-06 20:54 | 43.20160 | -76.24971 | 34884 ft | 468 kts | 5° |
| 2026-05-06 20:55 | 43.26577 | -76.23422 | 34883 ft | 468 kts | 5° |
| 2026-05-06 20:55 | 43.33002 | -76.21850 | 34888 ft | 469 kts | 5° |
| 2026-05-06 20:56 | 43.39384 | -76.20288 | 34890 ft | 468 kts | 5° |
| 2026-05-06 20:56 | 43.45798 | -76.18715 | 34889 ft | 468 kts | 6° |
| 2026-05-06 20:57 | 43.52227 | -76.17134 | 34891 ft | 468 kts | 6° |
| 2026-05-06 20:57 | 43.58644 | -76.15555 | 34890 ft | 468 kts | 6° |
| 2026-05-06 20:58 | 43.65023 | -76.13974 | 34889 ft | 468 kts | 6° |
| 2026-05-06 20:58 | 43.71446 | -76.12387 | 34825 ft | 468 kts | 6° |
| 2026-05-06 20:58 | 43.74658 | -76.11593 | 34608 ft | 468 kts | 6° |
| 2026-05-06 20:59 | 43.77828 | -76.10803 | 34338 ft | 468 kts | 6° |
| 2026-05-06 20:59 | 43.81048 | -76.10004 | 34049 ft | 468 kts | 6° |
| 2026-05-06 20:59 | 43.84252 | -76.09208 | 33746 ft | 469 kts | 6° |
| 2026-05-06 20:59 | 43.87463 | -76.08412 | 33449 ft | 469 kts | 6° |
| 2026-05-06 21:00 | 43.90681 | -76.07611 | 33163 ft | 469 kts | 6° |
| 2026-05-06 21:00 | 43.93892 | -76.06615 | 32847 ft | 473 kts | 14° |
| 2026-05-06 21:00 | 43.96917 | -76.04922 | 32546 ft | 478 kts | 25° |
| 2026-05-06 21:00 | 43.99788 | -76.02554 | 32258 ft | 480 kts | 30° |
| 2026-05-06 21:01 | 44.02603 | -76.00044 | 31967 ft | 480 kts | 31° |
| 2026-05-06 21:01 | 44.05416 | -75.97513 | 31654 ft | 478 kts | 31° |
| 2026-05-06 21:01 | 44.08213 | -75.95015 | 31364 ft | 475 kts | 30° |
| 2026-05-06 21:01 | 44.10962 | -75.92574 | 31065 ft | 473 kts | 30° |
| 2026-05-06 21:02 | 44.13744 | -75.90112 | 30763 ft | 471 kts | 30° |
| 2026-05-06 21:02 | 44.16497 | -75.87673 | 30461 ft | 468 kts | 30° |
| 2026-05-06 21:02 | 44.19245 | -75.85238 | 30152 ft | 466 kts | 30° |
| 2026-05-06 21:02 | 44.21967 | -75.82812 | 29854 ft | 463 kts | 30° |
| 2026-05-06 21:03 | 44.24681 | -75.80390 | 29543 ft | 461 kts | 30° |
| 2026-05-06 21:03 | 44.27381 | -75.77980 | 29250 ft | 459 kts | 30° |
| 2026-05-06 21:03 | 44.30035 | -75.75615 | 28974 ft | 457 kts | 31° |
| 2026-05-06 21:03 | 44.32710 | -75.73224 | 28705 ft | 455 kts | 31° |
| 2026-05-06 21:04 | 44.35369 | -75.70849 | 28440 ft | 454 kts | 31° |
| 2026-05-06 21:04 | 44.38032 | -75.68472 | 28188 ft | 452 kts | 31° |
| 2026-05-06 21:04 | 44.40682 | -75.66102 | 27937 ft | 450 kts | 31° |
| 2026-05-06 21:04 | 44.43310 | -75.63739 | 27684 ft | 447 kts | 31° |
| 2026-05-06 21:05 | 44.45889 | -75.61423 | 27434 ft | 445 kts | 31° |
| 2026-05-06 21:05 | 44.48498 | -75.59080 | 27185 ft | 443 kts | 31° |
| 2026-05-06 21:05 | 44.51093 | -75.56747 | 26935 ft | 442 kts | 31° |
| 2026-05-06 21:05 | 44.53680 | -75.54419 | 26679 ft | 440 kts | 31° |
| 2026-05-06 21:06 | 44.56259 | -75.52090 | 26434 ft | 439 kts | 31° |
| 2026-05-06 21:06 | 44.58786 | -75.49804 | 26186 ft | 437 kts | 31° |
| 2026-05-06 21:06 | 44.61339 | -75.47499 | 25919 ft | 436 kts | 31° |
| 2026-05-06 21:06 | 44.63884 | -75.45200 | 25614 ft | 434 kts | 31° |
| 2026-05-06 21:07 | 44.66434 | -75.42894 | 25294 ft | 432 kts | 31° |
| 2026-05-06 21:07 | 44.68957 | -75.40610 | 24965 ft | 430 kts | 31° |
| 2026-05-06 21:07 | 44.71448 | -75.38293 | 24634 ft | 429 kts | 34° |
| 2026-05-06 21:07 | 44.73680 | -75.35483 | 24300 ft | 429 kts | 46° |
| 2026-05-06 21:08 | 44.75001 | -75.33413 | 24098 ft | 428 kts | 48° |
| 2026-05-06 21:08 | 44.77565 | -75.29226 | 23667 ft | 426 kts | 49° |
| 2026-05-06 21:08 | 44.79486 | -75.26059 | 23337 ft | 423 kts | 49° |
| 2026-05-06 21:08 | 44.80758 | -75.23973 | 23117 ft | 422 kts | 49° |
| 2026-05-06 21:09 | 44.82674 | -75.20845 | 22789 ft | 420 kts | 49° |
| 2026-05-06 21:09 | 44.85202 | -75.16724 | 22356 ft | 417 kts | 49° |
| 2026-05-06 21:09 | 44.86484 | -75.14645 | 22141 ft | 416 kts | 49° |
| 2026-05-06 21:09 | 44.88396 | -75.11576 | 21807 ft | 414 kts | 48° |
| 2026-05-06 21:10 | 44.90258 | -75.08574 | 21484 ft | 412 kts | 49° |
| 2026-05-06 21:10 | 44.92146 | -75.05522 | 21154 ft | 411 kts | 49° |
| 2026-05-06 21:10 | 44.94022 | -75.02477 | 20829 ft | 408 kts | 49° |
| 2026-05-06 21:10 | 44.95876 | -74.99457 | 20484 ft | 407 kts | 49° |
| 2026-05-06 21:11 | 44.97726 | -74.96428 | 20087 ft | 405 kts | 50° |
| 2026-05-06 21:11 | 44.99323 | -74.93170 | 19668 ft | 402 kts | 60° |
| 2026-05-06 21:11 | 45.00670 | -74.89781 | 19260 ft | 400 kts | 61° |
| 2026-05-06 21:11 | 45.02028 | -74.86339 | 18833 ft | 398 kts | 61° |
| 2026-05-06 21:12 | 45.03378 | -74.82931 | 18403 ft | 395 kts | 61° |
| 2026-05-06 21:12 | 45.04719 | -74.79555 | 17976 ft | 393 kts | 61° |
| 2026-05-06 21:12 | 45.06058 | -74.76187 | 17549 ft | 391 kts | 61° |
| 2026-05-06 21:12 | 45.07390 | -74.72829 | 17123 ft | 388 kts | 61° |
| 2026-05-06 21:13 | 45.08689 | -74.69550 | 16702 ft | 385 kts | 61° |
| 2026-05-06 21:13 | 45.10002 | -74.66232 | 16272 ft | 383 kts | 61° |
| 2026-05-06 21:13 | 45.11304 | -74.62945 | 15847 ft | 380 kts | 61° |
| 2026-05-06 21:13 | 45.12631 | -74.59787 | 15428 ft | 377 kts | 58° |
| 2026-05-06 21:14 | 45.14027 | -74.56595 | 15003 ft | 374 kts | 58° |
| 2026-05-06 21:14 | 45.15388 | -74.53501 | 14612 ft | 372 kts | 58° |
| 2026-05-06 21:14 | 45.16751 | -74.50393 | 14234 ft | 369 kts | 58° |
| 2026-05-06 21:14 | 45.18097 | -74.47307 | 13855 ft | 367 kts | 58° |
| 2026-05-06 21:15 | 45.19439 | -74.44234 | 13477 ft | 365 kts | 58° |
| 2026-05-06 21:15 | 45.20751 | -74.41204 | 13103 ft | 363 kts | 58° |
| 2026-05-06 21:15 | 45.22064 | -74.38179 | 12724 ft | 360 kts | 58° |
| 2026-05-06 21:15 | 45.23375 | -74.35160 | 12348 ft | 357 kts | 58° |
| 2026-05-06 21:16 | 45.24672 | -74.32159 | 11961 ft | 352 kts | 58° |
| 2026-05-06 21:16 | 45.25938 | -74.29223 | 11587 ft | 344 kts | 58° |
| 2026-05-06 21:16 | 45.27177 | -74.26348 | 11196 ft | 336 kts | 58° |
| 2026-05-06 21:16 | 45.28359 | -74.23577 | 10810 ft | 328 kts | 59° |
| 2026-05-06 21:17 | 45.29529 | -74.20856 | 10429 ft | 320 kts | 58° |
| 2026-05-06 21:17 | 45.30660 | -74.18185 | 10077 ft | 311 kts | 58° |
| 2026-05-06 21:17 | 45.31769 | -74.15598 | 9953 ft | 301 kts | 58° |
| 2026-05-06 21:17 | 45.32859 | -74.13082 | 9848 ft | 296 kts | 58° |
| 2026-05-06 21:18 | 45.33925 | -74.10617 | 9407 ft | 290 kts | 58° |
| 2026-05-06 21:18 | 45.34964 | -74.08202 | 8925 ft | 290 kts | 58° |
| 2026-05-06 21:18 | 45.36071 | -74.05768 | 8503 ft | 289 kts | 50° |
| 2026-05-06 21:18 | 45.37449 | -74.03754 | 8166 ft | 286 kts | 41° |
| 2026-05-06 21:19 | 45.38910 | -74.01859 | 7960 ft | 282 kts | 40° |
| 2026-05-06 21:19 | 45.40361 | -74.00005 | 7937 ft | 279 kts | 40° |
| 2026-05-06 21:19 | 45.41818 | -73.98155 | 7944 ft | 282 kts | 41° |
| 2026-05-06 21:19 | 45.43248 | -73.96321 | 7748 ft | 272 kts | 41° |
| 2026-05-06 21:20 | 45.44634 | -73.94503 | 7377 ft | 269 kts | 41° |
| 2026-05-06 21:20 | 45.46007 | -73.92720 | 6973 ft | 268 kts | 41° |
| 2026-05-06 21:20 | 45.47367 | -73.90950 | 6603 ft | 265 kts | 41° |
| 2026-05-06 21:20 | 45.48727 | -73.89175 | 6256 ft | 265 kts | 41° |
| 2026-05-06 21:21 | 45.50077 | -73.87421 | 5920 ft | 261 kts | 41° |
| 2026-05-06 21:21 | 45.51416 | -73.85674 | 5588 ft | 260 kts | 41° |
| 2026-05-06 21:21 | 45.52741 | -73.83940 | 5262 ft | 257 kts | 41° |
| 2026-05-06 21:21 | 45.54044 | -73.82233 | 4925 ft | 252 kts | 41° |
| 2026-05-06 21:22 | 45.55322 | -73.80557 | 4633 ft | 246 kts | 41° |
| 2026-05-06 21:22 | 45.56573 | -73.78919 | 4361 ft | 240 kts | 41° |
| 2026-05-06 21:22 | 45.57783 | -73.77334 | 4100 ft | 233 kts | 41° |
| 2026-05-06 21:22 | 45.58942 | -73.75817 | 3837 ft | 225 kts | 42° |
| 2026-05-06 21:23 | 45.60083 | -73.74322 | 3575 ft | 221 kts | 42° |
| 2026-05-06 21:23 | 45.61220 | -73.72830 | 3361 ft | 220 kts | 42° |
| 2026-05-06 21:23 | 45.62343 | -73.71356 | 3151 ft | 220 kts | 43° |
| 2026-05-06 21:23 | 45.63473 | -73.69884 | 2972 ft | 219 kts | 38° |
| 2026-05-06 21:24 | 45.64828 | -73.68887 | 2837 ft | 220 kts | 25° |
| 2026-05-06 21:24 | 45.65982 | -73.67527 | 2754 ft | 218 kts | 57° |
| 2026-05-06 21:24 | 45.66467 | -73.65532 | 2730 ft | 206 kts | 89° |
| 2026-05-06 21:24 | 45.66146 | -73.63685 | 2679 ft | 183 kts | 126° |
| 2026-05-06 21:25 | 45.65209 | -73.62488 | 2712 ft | 183 kts | 147° |
| 2026-05-06 21:25 | 45.64116 | -73.61529 | 2771 ft | 183 kts | 149° |
| 2026-05-06 21:25 | 45.63000 | -73.60652 | 2782 ft | 183 kts | 157° |
| 2026-05-06 21:25 | 45.61798 | -73.60116 | 2791 ft | 183 kts | 166° |
| 2026-05-06 21:26 | 45.60546 | -73.59666 | 2839 ft | 183 kts | 167° |
| 2026-05-06 21:26 | 45.59328 | -73.59793 | 2824 ft | 170 kts | 201° |
| 2026-05-06 21:26 | 45.58339 | -73.60632 | 2738 ft | 164 kts | 216° |
| 2026-05-06 21:26 | 45.57456 | -73.61655 | 2554 ft | 163 kts | 220° |
| 2026-05-06 21:27 | 45.56622 | -73.62714 | 2348 ft | 163 kts | 222° |
| 2026-05-06 21:27 | 45.55779 | -73.63808 | 2128 ft | 163 kts | 222° |
| 2026-05-06 21:27 | 45.54949 | -73.64900 | 1905 ft | 162 kts | 222° |
| 2026-05-06 21:27 | 45.54124 | -73.65983 | 1714 ft | 160 kts | 221° |
| 2026-05-06 21:28 | 45.53304 | -73.67062 | 1497 ft | 160 kts | 222° |
| 2026-05-06 21:28 | 45.52521 | -73.68090 | 1263 ft | 140 kts | 222° |
| 2026-05-06 21:28 | 45.51826 | -73.69003 | 1074 ft | 134 kts | 222° |
| 2026-05-06 21:28 | 45.51147 | -73.69895 | 908 ft | 134 kts | 222° |
| 2026-05-06 21:29 | 45.50681 | -73.70506 | 791 ft | 134 kts | 222° |
| 2026-05-06 21:29 | 45.49998 | -73.71401 | 620 ft | 133 kts | 221° |
| 2026-05-06 21:29 | 45.49307 | -73.72288 | 395 ft | 134 kts | 222° |
| 2026-05-06 21:29 | 45.48631 | -73.73197 | 215 ft | 133 kts | 223° |
| 2026-05-06 21:30 | 45.47950 | -73.74088 | 121 ft | 130 kts | 224° |
| 2026-05-06 21:30 | 45.47386 | -73.74839 | 116 ft | 85 kts | 225° |
| 2026-05-06 21:30 | 45.47079 | -73.75229 | 112 ft | 50 kts | 223° |
| 2026-05-06 21:30 | 45.46872 | -73.75515 | 111 ft | 3 kts | 199° |
| 2026-05-06 21:31 | 45.46846 | -73.75525 | 113 ft | 5 kts | 198° |
| 2026-05-06 21:31 | 45.46805 | -73.75547 | 114 ft | 8 kts | 204° |
| 2026-05-06 21:31 | 45.46747 | -73.75581 | 114 ft | 10 kts | 199° |
| 2026-05-06 21:31 | 45.46672 | -73.75607 | 112 ft | 12 kts | 193° |
| 2026-05-06 21:32 | 45.46589 | -73.75634 | 111 ft | 13 kts | 193° |
| 2026-05-06 21:32 | 45.46448 | -73.75678 | 110 ft | 6 kts | 191° |
| 2026-05-06 21:32 | 45.46403 | -73.75695 | 109 ft | 8 kts | 195° |
| 2026-05-06 21:33 | 45.46343 | -73.75718 | 109 ft | 10 kts | 195° |
| 2026-05-06 21:33 | 45.46262 | -73.75732 | 109 ft | 13 kts | 180° |
| 2026-05-06 21:33 | 45.46176 | -73.75752 | 107 ft | 14 kts | 241° |
| 2026-05-06 21:33 | 45.46101 | -73.75767 | 107 ft | 17 kts | 135° |
| 2026-05-06 21:34 | 45.46055 | -73.75840 | 109 ft | 14 kts | 274° |
| 2026-05-06 21:34 | 45.46023 | -73.75964 | 110 ft | 16 kts | 179° |
| 2026-05-06 21:34 | 45.45909 | -73.75953 | 110 ft | 16 kts | 173° |
| 2026-05-06 21:34 | 45.45803 | -73.75923 | 110 ft | 17 kts | 159° |
| 2026-05-06 21:35 | 45.45736 | -73.75781 | 109 ft | 17 kts | 141° |
| 2026-05-06 21:35 | 45.45679 | -73.75729 | 110 ft | 10 kts | 158° |
| 2026-05-06 21:35 | 45.45619 | -73.75669 | 110 ft | 13 kts | 87° |
| 2026-05-06 21:35 | 45.45634 | -73.75585 | 110 ft | 9 kts | 77° |
| 2026-05-06 21:36 | 45.45649 | -73.75537 | 110 ft | 1 kts | 37° |
| 2026-05-06 21:36 | 45.45660 | -73.75524 | 109 ft | 3 kts | 37° |
| 2026-05-06 21:36 | 45.45682 | -73.75493 | 108 ft | 6 kts | 62° |
| 2026-05-06 21:36 | 45.45675 | -73.75439 | 110 ft | 5 kts | 102° |
| 2026-05-06 21:37 | 45.45670 | -73.75427 | 110 ft | 0 kts | 141° |
| 2026-05-06 21:37 | 45.45669 | -73.75425 | 109 ft | 1 kts | 133° |
| 2026-05-06 21:37 | 45.45668 | -73.75423 | 110 ft | 0 kts | 119° |
| 2026-05-06 21:42 | 45.45701 | -73.75403 | 109 ft | 0 kts | 118° |